KAEG

Double Eagle II Airport

Albuquerque, New Mexico, USA
KAEG 182325Z 1900/1924 29025G35KT P6SM BKN060 FM190200 31022G30KT P6SM SCT080 FM190500 33014KT P6SM FEW100 FM191000 32007KT P6SM SKC
Issued Valid From Valid To
Jan-18 @ 23:25 UTC
(3 hours ago)
Jan-19 @ 00:00 UTC
(2 hours ago)
Jan-20 @ 00:00 UTC
(in 22 hours)
Expired Click to View Jan-19 @ 00:00 to Jan-19 @ 02:00
KAEG 182325Z 1900/1924 29025G35KT P6SM BKN060
Wind Visibility Clouds
290° at 25 knots
 Gusting to 35 knots
Greater than 6 miles
  • Broken at 6,000' AGL
From Jan-19 @ 02:00 to Jan-19 @ 05:00
FM190200 31022G30KT P6SM SCT080
Wind Visibility Clouds
310° at 22 knots
 Gusting to 30 knots
Greater than 6 miles
  • Scattered at 8,000' AGL
From Jan-19 @ 05:00 to Jan-19 @ 10:00
FM190500 33014KT P6SM FEW100
Wind Visibility Clouds
330° at 14 knots Greater than 6 miles
  • Few at 10,000' AGL
From Jan-19 @ 10:00 to Jan-20 @ 00:00
FM191000 32007KT P6SM SKC
Wind Visibility Clouds
320° at 7 knots Greater than 6 miles
  • Clear skies
KAEG 182325Z 1900/1924 29025G35KT P6SM BKN060 FM190200 31022G30KT P6SM SCT080 FM190500 33014KT P6SM FEW100 FM191000 32007KT P6SM SKC
Issued Jan-18 @ 23:25 UTC
(3 hours ago)
Valid From Jan-19 @ 00:00 UTC
(2 hours ago)
Valid To Jan-20 @ 00:00 UTC
(in 22 hours)
Jan-19 @ 00:00 - Jan-19 @ 02:00
Wind Visibility
290° at 25 knots
 Gusting to 35 knots
Greater than 6 miles
Clouds
  • Broken at 6,000' AGL
From Jan-19 @ 02:00 - Jan-19 @ 05:00
Wind Visibility
310° at 22 knots
 Gusting to 30 knots
Greater than 6 miles
Clouds
  • Scattered at 8,000' AGL
From Jan-19 @ 05:00 - Jan-19 @ 10:00
Wind Visibility
330° at 14 knots Greater than 6 miles
Clouds
  • Few at 10,000' AGL
From Jan-19 @ 10:00 - Jan-20 @ 00:00
Wind Visibility
320° at 7 knots Greater than 6 miles
Clouds
  • Clear skies